Terminal Aerodrome Forecast
Issued by NWS Buffalo, NY

Home | Current Version | Previous Version | Text Only | Print | Product List | Glossary On
Versions: 1 2 3 4 5 6 7 8 9 10 11 12 13 14 15 16 17 18 19 20 21 22 23 24 25 26 27
210
FTUS41 KBUF 230541
TAFART
TAF
KART 230541Z 2306/2406 05004KT 3SM -FZRA OVC060 WS020/18040KT
     FM230800 20016KT 6SM -RA OVC060
     FM231500 17011KT P6SM VCSH OVC060
     FM231800 19008KT P6SM OVC090
     FM232300 24012G18KT 2SM -RASN OVC030
     FM240400 24015G34KT 2SM -SNRA OVC015
     FM240500 25015G32KT 2SM -SHSN OVC020=

USA.gov is the U.S. government's official web portal to all federal, state and local government web resources and services.